Time;durP1;ratioP1;P1;durP2;ratioP2;P2;SDS_P1;SDS_P2;PMS_P1;PMS_P2;Temp;Humidity;BMP_temperature;BMP_pressure;BME280_temperature;BME280_humidity;BME280_pressure;Samples;Min_cycle;Max_cycle;Signal;HPM_P1;HPM_P2
2021/11/01 00:00:53;;;;;;;3.20;2.90;;;;;;;16.36;63.68;99603.47;6109953;28;20647;-64
2021/11/01 00:04:15;;;;;;;3.63;3.27;;;;;;;16.30;64.18;99608.13;6110178;29;20217;-63
2021/11/01 00:07:37;;;;;;;3.67;3.37;;;;;;;16.45;63.69;99595.09;6110446;28;20240;-64
2021/11/01 00:10:58;;;;;;;3.93;3.53;;;;;;;16.61;63.44;99608.28;6107629;28;20614;-64
2021/11/01 00:14:19;;;;;;;3.30;2.90;;;;;;;16.42;63.88;99621.53;6110055;29;20311;-63
2021/11/01 00:17:40;;;;;;;4.43;3.90;;;;;;;16.50;63.71;99629.88;6109040;28;20255;-64
2021/11/01 00:21:01;;;;;;;2.80;2.60;;;;;;;16.44;63.95;99630.19;6110663;28;20271;-64
2021/11/01 00:24:23;;;;;;;4.67;2.80;;;;;;;16.42;63.85;99632.91;6108096;29;20236;-64
2021/11/01 00:27:44;;;;;;;3.37;3.07;;;;;;;16.48;63.47;99637.84;6104158;28;20532;-63
2021/11/01 00:31:06;;;;;;;2.83;2.63;;;;;;;16.57;63.20;99640.91;6103518;28;20505;-63
2021/11/01 00:34:27;;;;;;;3.43;2.53;;;;;;;16.54;63.62;99644.56;6107621;29;20259;-63
2021/11/01 00:37:48;;;;;;;2.50;2.30;;;;;;;16.32;64.08;99627.28;6111592;28;20613;-64
2021/11/01 00:41:11;;;;;;;2.93;1.57;;;;;;;16.31;65.57;99611.59;6108273;28;20283;-62
2021/11/01 00:44:32;;;;;;;3.07;1.40;;;;;;;16.09;67.06;99625.84;6108307;29;20235;-63
2021/11/01 00:47:53;;;;;;;1.50;1.40;;;;;;;16.36;66.59;99627.13;6107727;28;20231;-63
2021/11/01 00:51:14;;;;;;;2.17;1.70;;;;;;;16.28;67.41;99620.47;6101717;28;20236;-63
2021/11/01 00:54:36;;;;;;;1.97;1.87;;;;;;;15.96;69.27;99634.41;6105634;29;20212;-63
2021/11/01 00:57:58;;;;;;;1.90;1.80;;;;;;;16.16;68.72;99641.28;6107379;28;20228;-62
2021/11/01 01:01:19;;;;;;;2.80;1.90;;;;;;;15.71;70.30;99633.81;6107153;28;20267;-62
2021/11/01 01:04:40;;;;;;;1.90;1.80;;;;;;;15.66;71.13;99643.66;6111582;29;20784;-63
2021/11/01 01:08:01;;;;;;;1.77;1.67;;;;;;;16.02;69.71;99655.13;6118426;28;20259;-64
2021/11/01 01:11:22;;;;;;;2.20;2.00;;;;;;;16.21;68.10;99658.50;6112673;28;20240;-63
2021/11/01 01:14:47;;;;;;;3.90;2.30;;;;;;;15.85;67.73;99654.16;6115118;29;20247;-63
2021/11/01 01:18:14;;;;;;;3.67;2.07;;;;;;;15.45;65.94;99656.06;6114366;28;20763;-63
2021/11/01 01:25:24;;;;;;;8.17;2.80;;;;;;;15.02;61.76;99652.81;6117322;29;20231;-64
2021/11/01 01:28:46;;;;;;;12.93;4.00;;;;;;;15.23;60.23;99676.34;6113673;29;20229;-63
2021/11/01 01:32:09;;;;;;;8.97;3.43;;;;;;;14.95;61.17;99682.88;6113751;28;20259;-63
2021/11/01 01:35:34;;;;;;;7.63;3.40;;;;;;;15.12;60.56;99701.31;6116033;28;20209;-63
2021/11/01 01:38:55;;;;;;;13.07;3.53;;;;;;;14.97;61.34;99696.75;6112779;29;20216;-63
2021/11/01 01:42:16;;;;;;;11.47;3.63;;;;;;;14.91;61.19;99697.03;6115959;28;20232;-64
2021/11/01 01:45:37;;;;;;;13.00;3.60;;;;;;;14.69;61.92;99692.72;6113663;28;20621;-64
2021/11/01 01:49:00;;;;;;;8.17;3.83;;;;;;;14.86;61.97;99688.53;6115910;29;20220;-63
2021/11/01 01:52:21;;;;;;;15.00;4.83;;;;;;;14.79;62.72;99693.16;6115360;28;20574;-63
2021/11/01 01:55:42;;;;;;;8.13;3.37;;;;;;;14.51;63.71;99704.81;6115775;28;20586;-64
2021/11/01 01:59:10;;;;;;;10.07;3.27;;;;;;;14.73;62.47;99682.97;6114813;29;20207;-63
2021/11/01 02:02:33;;;;;;;7.67;2.63;;;;;;;14.72;62.38;99682.13;6125468;28;20235;-63
2021/11/01 02:06:02;;;;;;;13.27;2.90;;;;;;;14.48;63.15;99681.41;6110269;28;20541;-63
2021/11/01 02:09:29;;;;;;;10.83;3.67;;;;;;;14.83;62.15;99671.16;6110723;29;20283;-63
2021/11/01 02:12:54;;;;;;;13.13;3.70;;;;;;;14.30;63.46;99669.91;6114161;28;20327;-63
2021/11/01 02:16:16;;;;;;;12.10;3.20;;;;;;;14.61;62.61;99668.63;6112885;28;20236;-62
2021/11/01 02:19:46;;;;;;;7.50;2.43;;;;;;;14.27;63.59;99670.06;6111936;29;20371;-64
2021/11/01 02:23:16;;;;;;;10.77;3.10;;;;;;;14.13;63.75;99673.28;6113034;28;20239;-62
2021/11/01 02:26:40;;;;;;;15.43;3.47;;;;;;;14.40;63.36;99685.25;6113679;28;20235;-63
2021/11/01 02:30:02;;;;;;;15.60;3.23;;;;;;;14.08;64.26;99680.47;6113625;29;20548;-62
2021/11/01 02:33:25;;;;;;;8.17;2.73;;;;;;;14.27;63.80;99671.81;6113382;28;20236;-63
2021/11/01 02:36:47;;;;;;;9.47;3.43;;;;;;;14.34;63.37;99657.56;6111629;28;20235;-64
2021/11/01 02:40:10;;;;;;;10.73;3.10;;;;;;;13.98;64.20;99653.81;6111489;29;20278;-64
2021/11/01 02:43:32;;;;;;;9.37;4.00;;;;;;;14.12;64.05;99668.09;6111880;29;20244;-63
2021/11/01 02:46:53;;;;;;;12.17;3.13;;;;;;;14.12;64.30;99649.78;6114270;28;20517;-63
2021/11/01 02:50:17;;;;;;;9.63;2.73;;;;;;;14.28;63.99;99644.72;6111072;29;20236;-63
2021/11/01 02:53:38;;;;;;;9.37;2.90;;;;;;;13.70;66.06;99663.72;6113498;29;20220;-62
2021/11/01 02:56:59;;;;;;;5.10;2.27;;;;;;;13.62;66.28;99644.84;6110929;28;20240;-64
2021/11/01 03:00:25;;;;;;;7.80;2.90;;;;;;;14.33;64.79;99650.63;6112276;29;20613;-64
2021/11/01 03:03:47;;;;;;;10.33;4.23;;;;;;;13.72;67.10;99651.41;6113782;29;20510;-63
2021/11/01 03:07:09;;;;;;;6.37;2.40;;;;;;;13.90;66.73;99650.66;6112591;28;20236;-63
2021/11/01 03:10:30;;;;;;;7.73;2.93;;;;;;;13.53;68.10;99667.84;6112614;28;20342;-63
2021/11/01 03:13:51;;;;;;;18.03;3.60;;;;;;;13.64;68.11;99661.34;6115187;29;20211;-63
2021/11/01 03:17:18;;;;;;;16.83;3.70;;;;;;;13.70;67.92;99663.72;6112516;28;20239;-63
2021/11/01 03:20:43;;;;;;;5.83;3.20;;;;;;;13.28;69.01;99665.31;6111962;28;20208;-63
2021/11/01 03:24:05;;;;;;;8.47;3.17;;;;;;;13.34;69.04;99672.94;6113613;29;20224;-63
2021/11/01 03:27:28;;;;;;;13.53;3.23;;;;;;;13.85;67.29;99678.78;6112001;28;20236;-63
2021/11/01 03:30:50;;;;;;;9.43;3.17;;;;;;;13.54;68.56;99681.78;6112806;28;20236;-63
2021/11/01 03:34:12;;;;;;;13.03;4.27;;;;;;;13.36;69.12;99667.66;6112904;29;20237;-62
2021/11/01 03:37:34;;;;;;;12.10;3.03;;;;;;;13.37;69.05;99677.19;6113531;28;20239;-64
2021/11/01 03:40:55;;;;;;;11.90;3.90;;;;;;;13.08;70.05;99697.41;6112343;28;20514;-63
2021/11/01 03:44:20;;;;;;;11.23;3.13;;;;;;;13.24;69.80;99697.72;6113901;29;20649;-63
2021/11/01 03:47:42;;;;;;;11.07;2.80;;;;;;;13.27;69.60;99712.44;6111852;28;20231;-64
2021/11/01 03:51:08;;;;;;;11.50;4.70;;;;;;;13.13;69.91;99711.19;6112755;28;20236;-63
2021/11/01 03:54:29;;;;;;;13.90;4.13;;;;;;;13.11;69.85;99706.94;6112352;29;20216;-63
2021/11/01 03:57:50;;;;;;;15.93;3.73;;;;;;;12.89;70.90;99712.06;6111648;28;20637;-63
2021/11/01 04:01:11;;;;;;;12.90;2.67;;;;;;;13.28;68.96;99703.66;6109832;28;20236;-64
2021/11/01 04:04:32;;;;;;;9.63;3.20;;;;;;;13.18;69.58;99714.47;6114359;29;20208;-64
2021/11/01 04:07:55;;;;;;;12.93;3.43;;;;;;;12.94;69.88;99718.84;6111097;28;20298;-63
2021/11/01 04:11:18;;;;;;;11.10;3.53;;;;;;;12.74;70.61;99709.09;6108100;28;20243;-64
2021/11/01 04:14:42;;;;;;;11.77;3.33;;;;;;;12.73;70.84;99704.78;6112232;29;20215;-64
2021/11/01 04:18:05;;;;;;;16.07;3.83;;;;;;;12.96;69.79;99718.78;6117492;28;20259;-64
2021/11/01 04:21:26;;;;;;;13.87;3.63;;;;;;;12.63;71.32;99706.03;6112067;28;20236;-63
2021/11/01 04:24:49;;;;;;;13.30;3.43;;;;;;;12.78;70.75;99705.47;6111709;29;20362;-64
2021/11/01 04:28:10;;;;;;;10.00;2.53;;;;;;;12.37;72.14;99706.94;6112501;28;20243;-64
2021/11/01 04:31:33;;;;;;;13.50;3.33;;;;;;;12.58;72.05;99707.94;6113006;28;20503;-63
2021/11/01 04:34:59;;;;;;;10.90;2.97;;;;;;;12.70;70.94;99711.91;6110986;29;20232;-63
2021/11/01 04:38:31;;;;;;;12.50;3.10;;;;;;;12.37;72.00;99726.06;6108988;28;20258;-64
2021/11/01 04:42:09;;;;;;;13.50;4.50;;;;;;;12.49;71.88;99722.16;6110701;28;20652;-63
2021/11/01 04:53:00;;;;;;;12.67;4.30;;;;;;;12.62;70.98;99709.56;6111805;28;20223;-63
2021/11/01 04:56:25;;;;;;;8.33;3.70;;;;;;;12.38;72.07;99727.75;6111366;28;20239;-65
2021/11/01 04:59:48;;;;;;;10.13;3.07;;;;;;;12.34;71.86;99741.81;6110801;29;20307;-63
2021/11/01 05:03:14;;;;;;;11.77;2.97;;;;;;;12.38;71.42;99717.31;6116430;28;20235;-64
2021/11/01 05:06:37;;;;;;;17.17;4.07;;;;;;;12.39;71.52;99723.41;6111324;28;20236;-63
2021/11/01 05:10:02;;;;;;;18.30;4.30;;;;;;;12.53;71.19;99736.81;6108153;29;20319;-63
2021/11/01 05:13:27;;;;;;;14.77;4.63;;;;;;;12.58;71.48;99728.81;6109906;28;20231;-63
2021/11/01 05:16:58;;;;;;;9.27;3.53;;;;;;;12.71;70.37;99745.78;6110832;28;20231;-64
2021/11/01 05:20:23;;;;;;;15.70;3.93;;;;;;;12.46;71.78;99751.00;6106738;29;20208;-64
2021/11/01 05:23:51;;;;;;;19.53;5.03;;;;;;;12.28;71.95;99749.00;6105764;29;20259;-63
2021/11/01 05:30:54;;;;;;;11.80;3.50;;;;;;;12.93;70.18;99750.25;6105252;28;20354;-63
2021/11/01 05:34:17;;;;;;;10.20;4.23;;;;;;;13.06;69.39;99741.06;6103048;29;20239;-65
2021/11/01 05:37:38;;;;;;;14.40;4.83;;;;;;;12.79;70.54;99746.38;6104677;28;20275;-63
2021/11/01 05:40:59;;;;;;;11.43;4.07;;;;;;;12.96;69.85;99743.16;6103939;28;20236;-63
2021/11/01 05:44:20;;;;;;;13.37;5.20;;;;;;;12.32;71.81;99753.22;6105430;29;20208;-63
2021/11/01 05:47:44;;;;;;;10.17;4.07;;;;;;;13.00;69.89;99746.50;6118579;28;20240;-63
2021/11/01 05:51:12;;;;;;;16.37;4.87;;;;;;;12.87;69.81;99745.25;6107625;28;20251;-63
2021/11/01 05:54:33;;;;;;;14.47;4.20;;;;;;;12.74;70.11;99748.28;6108719;29;20481;-64
2021/11/01 05:58:06;;;;;;;14.23;4.33;;;;;;;12.63;70.78;99753.03;6109911;28;20625;-64
2021/11/01 06:09:06;;;;;;;11.57;4.60;;;;;;;12.92;69.73;99759.84;6109712;28;20232;-63
2021/11/01 06:16:05;;;;;;;10.90;4.10;;;;;;;12.98;69.02;99764.00;6108117;28;20236;-64
2021/11/01 06:19:27;;;;;;;14.77;4.87;;;;;;;12.83;69.99;99768.00;6112077;29;20208;-62
2021/11/01 06:22:48;;;;;;;14.43;4.77;;;;;;;12.81;69.60;99777.66;6107075;28;20232;-64
2021/11/01 06:26:11;;;;;;;9.93;4.40;;;;;;;13.26;68.38;99763.88;6108053;28;20232;-62
2021/11/01 06:29:36;;;;;;;12.63;5.17;;;;;;;12.91;69.48;99773.84;6109414;29;20211;-62
2021/11/01 06:33:14;;;;;;;15.23;5.73;;;;;;;13.29;68.21;99775.97;6112981;28;20228;-64
2021/11/01 06:40:32;;;;;;;11.10;4.50;;;;;;;13.00;69.16;99770.88;6105713;29;20212;-63
2021/11/01 06:44:14;;;;;;;13.47;5.17;;;;;;;12.99;68.99;99776.19;6108832;28;20216;-63
2021/11/01 06:51:28;;;;;;;10.30;4.27;;;;;;;12.91;68.63;99775.56;6112869;28;20629;-63
2021/11/01 06:58:32;;;;;;;13.93;5.30;;;;;;;12.74;69.01;99790.09;6109631;28;20231;-64
2021/11/01 07:16:42;;;;;;;10.50;4.93;;;;;;;13.02;68.24;99810.03;6108738;28;20240;-63
2021/11/01 07:20:15;;;;;;;11.53;5.63;;;;;;;12.80;68.89;99816.00;6113133;29;20282;-64
2021/11/01 08:22:39;;;;;;;8.33;3.80;;;;;;;12.61;67.05;99849.72;6106538;28;20231;-63
2021/11/01 08:30:04;;;;;;;14.63;3.43;;;;;;;13.12;65.20;99840.16;6108018;29;20228;-63
2021/11/01 08:48:14;;;;;;;11.07;4.27;;;;;;;12.77;66.04;99839.59;6101913;28;20259;-61
2021/11/01 09:10:22;;;;;;;8.20;2.77;;;;;;;12.78;64.99;99846.56;6097741;29;20215;-63
2021/11/01 09:18:42;;;;;;;17.73;4.90;;;;;;;12.96;64.10;99849.44;6100991;28;20212;-63
2021/11/01 09:21:33;;;;;;;5.50;2.70;;;;;;;13.68;61.71;99827.75;6102340;28;20716;-64
2021/11/01 09:25:03;;;;;;;8.57;2.77;;;;;;;13.46;61.21;99849.47;6111589;29;20228;-64
2021/11/01 09:28:29;;;;;;;10.47;4.70;;;;;;;13.29;61.81;99847.41;6114003;28;20633;-64
2021/11/01 09:42:55;;;;;;;8.37;2.33;;;;;;;13.06;61.69;99850.84;6096417;29;20240;-60
2021/11/01 09:46:16;;;;;;;12.63;2.87;;;;;;;12.93;61.67;99867.84;6110219;28;20362;-61
2021/11/01 09:49:37;;;;;;;6.63;2.87;;;;;;;13.05;61.41;99867.44;6112500;29;20393;-61
2021/11/01 09:53:01;;;;;;;8.33;2.57;;;;;;;12.90;61.52;99870.56;6112850;28;20733;-62
2021/11/01 09:56:30;;;;;;;13.13;3.03;;;;;;;13.09;61.21;99860.34;6115547;28;20236;-62
2021/11/01 09:59:52;;;;;;;9.23;2.43;;;;;;;14.75;54.93;99880.28;6114406;29;20204;-62
2021/11/01 10:03:14;;;;;;;5.13;2.33;;;;;;;14.91;54.47;99880.53;6113799;28;20239;-62
2021/11/01 10:06:36;;;;;;;6.97;2.30;;;;;;;15.90;51.44;99872.69;6111259;28;20231;-61
2021/11/01 10:10:04;;;;;;;9.88;2.03;;;;;;;15.92;50.61;99860.34;6108038;29;20240;-62
2021/11/01 10:13:27;;;;;;;8.88;3.72;;;;;;;14.72;55.01;99876.03;6113288;28;20577;-61
2021/11/01 10:20:30;;;;;;;4.67;2.43;;;;;;;14.81;54.51;99889.66;6113892;28;20227;-60
2021/11/01 10:23:55;;;;;;;5.53;2.20;;;;;;;15.68;52.47;99858.81;6105945;29;20901;-63
2021/11/01 10:27:28;;;;;;;8.97;2.67;;;;;;;15.77;51.74;99854.97;6110503;28;20236;-63
2021/11/01 10:30:49;;;;;;;6.70;1.93;;;;;;;14.91;53.17;99884.00;6110904;28;20239;-62
2021/11/01 10:34:13;;;;;;;6.20;2.47;;;;;;;14.55;54.35;99854.88;6110988;29;21802;-64
2021/11/01 10:37:36;;;;;;;7.80;2.60;;;;;;;13.43;57.16;99873.09;6114223;28;20239;-63
2021/11/01 10:41:02;;;;;;;6.93;2.60;;;;;;;15.22;52.38;99843.38;6110411;28;20232;-62
2021/11/01 10:44:58;;;;;;;6.53;1.92;;;;;;;18.60;43.61;99835.97;6106051;29;20216;-64
2021/11/01 11:13:56;;;;;;;10.00;3.27;;;;;;;15.26;51.75;99826.56;6108746;28;20239;-63
2021/11/01 11:17:27;;;;;;;5.03;2.27;;;;;;;15.01;51.86;99826.78;6108365;28;20256;-63
2021/11/01 11:21:01;;;;;;;8.57;2.67;;;;;;;16.49;47.48;99825.25;6110836;28;20240;-64
2021/11/01 11:32:12;;;;;;;8.50;2.37;;;;;;;16.07;47.46;99818.53;6110589;28;20621;-65
2021/11/01 11:43:28;;;;;;;4.87;2.00;;;;;;;16.92;45.43;99831.03;6109212;28;20730;-63
2021/11/01 11:50:34;;;;;;;4.82;2.50;;;;;;;15.89;48.20;99828.97;6109199;28;20201;-66
2021/11/01 11:53:58;;;;;;;7.77;2.80;;;;;;;15.76;47.64;99835.75;6108172;29;20259;-65
2021/11/01 11:57:20;;;;;;;6.93;2.03;;;;;;;17.52;43.23;99841.94;6112531;28;20228;-64
2021/11/01 12:00:43;;;;;;;9.32;2.45;;;;;;;16.40;45.24;99831.84;6110620;28;20232;-63
2021/11/01 12:04:20;;;;;;;5.25;1.60;;;;;;;16.47;45.15;99820.06;6107744;29;20307;-62
2021/11/01 12:07:49;;;;;;;5.80;1.97;;;;;;;15.59;47.37;99817.25;6107853;28;20244;-64
2021/11/01 12:11:29;;;;;;;4.27;1.30;;;;;;;14.91;49.54;99804.50;6109335;28;20259;-64
2021/11/01 12:18:29;;;;;;;4.93;1.70;;;;;;;15.07;50.08;99820.44;6108552;29;20497;-63
2021/11/01 12:21:58;;;;;;;6.93;2.57;;;;;;;15.15;49.20;99811.28;6105182;28;20508;-62
2021/11/01 12:25:24;;;;;;;5.53;2.33;;;;;;;15.21;49.33;99819.81;6117312;28;20239;-63
2021/11/01 12:28:52;;;;;;;6.77;2.10;;;;;;;14.62;50.58;99832.78;6106394;29;20297;-64
2021/11/01 12:32:14;;;;;;;4.27;2.00;;;;;;;14.41;51.07;99823.16;6104988;28;20240;-63
2021/11/01 12:35:42;;;;;;;4.70;1.47;;;;;;;14.41;51.71;99817.94;6107438;28;20232;-63
2021/11/01 12:39:16;;;;;;;2.87;1.77;;;;;;;15.15;49.37;99816.53;6102352;29;20310;-63
2021/11/01 12:57:27;;;;;;;5.53;1.60;;;;;;;15.06;48.94;99821.31;6104087;28;20243;-64
2021/11/01 13:00:48;;;;;;;6.17;1.57;;;;;;;14.75;49.01;99827.88;6109266;28;20243;-64
2021/11/01 13:04:15;;;;;;;5.00;1.87;;;;;;;14.35;49.67;99840.81;6108964;29;20232;-63
2021/11/01 13:07:51;;;;;;;3.97;2.67;;;;;;;14.45;49.37;99851.78;6108186;28;20239;-63
2021/11/01 13:11:32;;;;;;;3.53;1.87;;;;;;;14.77;48.15;99841.78;6107469;28;20251;-63
2021/11/01 13:15:05;;;;;;;3.77;1.70;;;;;;;14.86;48.56;99844.00;6105475;29;20208;-63
2021/11/01 13:18:25;;;;;;;4.93;1.80;;;;;;;13.99;49.87;99849.19;6103885;28;20265;-63
2021/11/01 13:21:52;;;;;;;6.17;2.27;;;;;;;14.86;48.12;99841.38;6103326;28;20240;-64
2021/11/01 13:25:19;;;;;;;4.60;2.33;;;;;;;14.48;48.91;99851.69;6103442;29;20525;-63
2021/11/01 13:28:52;;;;;;;4.60;1.50;;;;;;;14.65;48.65;99842.28;6104225;28;20243;-64
2021/11/01 13:36:15;;;;;;;3.87;1.67;;;;;;;14.54;48.24;99861.06;6104647;28;20236;-64
2021/11/01 13:39:37;;;;;;;4.73;1.93;;;;;;;14.41;49.17;99859.84;6106460;29;20212;-63
2021/11/01 13:42:59;;;;;;;4.70;1.77;;;;;;;15.08;48.39;99870.19;6108046;28;20231;-64
2021/11/01 13:46:27;;;;;;;3.73;1.97;;;;;;;14.65;49.40;99868.50;6103818;28;20227;-62
2021/11/01 13:49:50;;;;;;;5.13;1.93;;;;;;;14.98;48.41;99881.13;6107183;29;20224;-63
2021/11/01 13:53:16;;;;;;;4.00;2.10;;;;;;;14.89;48.00;99877.97;6108241;28;20239;-64
2021/11/01 13:56:41;;;;;;;5.60;1.67;;;;;;;14.40;49.19;99879.91;6103652;28;20326;-63
2021/11/01 14:00:21;;;;;;;5.83;2.20;;;;;;;15.40;47.74;99888.91;6106587;29;20205;-63
2021/11/01 14:10:53;;;;;;;6.57;1.97;;;;;;;14.45;49.60;99887.63;6104915;29;20224;-63
2021/11/01 14:11:40;;;;;;;2.33;1.67;;;;;;;14.15;50.30;99909.69;6111278;28;20382;-63
2021/11/01 14:15:05;;;;;;;2.90;1.83;;;;;;;15.09;47.59;99905.13;6114645;29;20236;-64
2021/11/01 14:18:42;;;;;;;5.63;2.07;;;;;;;15.33;47.16;99890.09;6113309;28;20236;-64
2021/11/01 14:29:48;;;;;;;5.57;1.80;;;;;;;14.19;50.93;99894.72;6110619;29;20212;-64
2021/11/01 14:37:11;;;;;;;2.03;1.83;;;;;;;14.20;51.33;99890.34;6099577;28;20676;-62
2021/11/01 15:17:21;;;;;;;2.93;2.03;;;;;;;13.92;51.51;99917.53;6107968;28;20236;-61
2021/11/01 15:20:57;;;;;;;8.90;3.83;;;;;;;13.71;52.20;99929.69;6107290;28;20300;-62
2021/11/01 16:15:12;;;;;;;5.17;1.97;;;;;;;13.29;53.35;99930.25;6057770;29;20239;-61
2021/11/01 16:20:20;;;;;;;7.07;3.07;;;;;;;13.95;52.38;99948.84;6112881;29;20229;-62
2021/11/01 16:23:42;;;;;;;6.23;3.53;;;;;;;13.58;52.99;99945.78;6113273;29;20263;-62
2021/11/01 16:27:04;;;;;;;5.10;2.57;;;;;;;13.82;52.81;99948.44;6111695;28;20235;-62
2021/11/01 16:30:30;;;;;;;8.07;3.67;;;;;;;13.99;52.28;99945.22;6113118;29;20208;-62
2021/11/01 16:33:55;;;;;;;5.50;3.20;;;;;;;14.06;51.93;99948.47;6111399;29;20228;-63
2021/11/01 16:37:24;;;;;;;6.07;2.47;;;;;;;13.36;53.44;99950.09;6110221;28;20235;-62
2021/11/01 16:40:47;;;;;;;6.63;2.53;;;;;;;13.68;52.68;99948.09;6112042;28;20566;-62
2021/11/01 16:44:15;;;;;;;5.23;2.37;;;;;;;13.58;53.20;99948.41;6112688;29;20208;-63
2021/11/01 16:47:38;;;;;;;6.53;2.47;;;;;;;14.16;51.77;99947.22;6111021;28;20235;-63
2021/11/01 16:51:00;;;;;;;6.90;2.50;;;;;;;13.98;52.10;99961.84;6106928;28;20326;-63
2021/11/01 16:54:25;;;;;;;5.50;2.60;;;;;;;13.60;53.33;99956.22;6108055;29;20228;-61
2021/11/01 16:57:53;;;;;;;5.97;2.47;;;;;;;13.36;54.30;99968.38;6111481;28;20248;-63
2021/11/01 17:01:20;;;;;;;5.80;3.07;;;;;;;13.50;54.30;99965.28;6108793;28;20787;-62
2021/11/01 17:04:47;;;;;;;8.07;3.33;;;;;;;13.15;55.33;99968.16;6105417;29;20227;-62
2021/11/01 17:08:36;;;;;;;5.97;2.67;;;;;;;13.10;55.40;99972.66;6105463;28;20267;-62
2021/11/01 17:22:59;;;;;;;8.50;4.10;;;;;;;12.67;57.11;99973.22;6108040;28;20334;-61
2021/11/01 17:26:28;;;;;;;7.17;3.67;;;;;;;12.80;57.15;99970.16;6107993;28;20248;-63
2021/11/01 17:37:39;;;;;;;13.20;3.43;;;;;;;12.86;56.99;99968.25;6108107;28;20645;-62
2021/11/01 18:40:08;;;;;;;6.20;3.47;;;;;;;11.93;60.25;100007.53;6106182;29;20264;-62
2021/11/01 18:51:02;;;;;;;8.53;3.83;;;;;;;11.78;60.95;100018.34;6097212;28;20244;-63
2021/11/01 18:54:33;;;;;;;6.90;3.77;;;;;;;11.96;60.39;100012.69;6109685;29;20668;-62
2021/11/01 18:57:55;;;;;;;5.80;4.17;;;;;;;12.13;59.92;99999.13;6107372;28;20236;-62
2021/11/01 19:01:17;;;;;;;5.73;3.50;;;;;;;12.25;59.66;100007.53;6111169;28;20686;-63
2021/11/01 19:04:43;;;;;;;4.80;3.53;;;;;;;12.20;59.80;100005.06;6111822;29;20719;-60
2021/11/01 19:08:14;;;;;;;7.77;5.33;;;;;;;12.32;59.61;100002.09;6108523;28;20232;-63
2021/11/01 20:03:53;;;;;;;7.40;3.80;;;;;;;11.21;63.41;100023.25;6105283;29;20224;-63
2021/11/01 20:14:48;;;;;;;6.60;3.67;;;;;;;11.41;62.85;100020.16;6111486;29;20633;-67
2021/11/01 21:24:49;;;;;;;7.83;3.37;;;;;;;10.71;66.22;100012.28;6110880;29;20223;-59
2021/11/01 21:28:11;;;;;;;5.17;3.03;;;;;;;10.40;66.72;100019.91;6104380;28;20235;-62
2021/11/01 21:31:32;;;;;;;4.73;2.97;;;;;;;10.75;66.03;100015.69;6112155;28;20255;-59
2021/11/01 21:34:58;;;;;;;5.57;3.20;;;;;;;10.93;65.96;100015.22;6111768;29;20208;-61
2021/11/01 21:38:21;;;;;;;5.40;3.27;;;;;;;10.69;66.46;100018.41;6112153;28;20243;-63
2021/11/01 21:41:42;;;;;;;6.13;2.80;;;;;;;10.71;65.87;100017.47;6100414;28;20240;-63
2021/11/01 21:45:04;;;;;;;5.20;2.23;;;;;;;10.08;68.00;100024.00;6099493;29;20216;-62
2021/11/01 21:48:25;;;;;;;5.03;2.53;;;;;;;10.28;66.74;100031.38;6107248;28;20236;-63
2021/11/01 21:51:47;;;;;;;3.53;1.93;;;;;;;10.33;66.95;100021.78;6107477;28;20231;-62
2021/11/01 21:55:10;;;;;;;7.70;2.50;;;;;;;10.57;66.19;100019.53;6109882;29;20224;-62
2021/11/01 21:58:49;;;;;;;5.80;3.33;;;;;;;10.49;66.12;100011.03;6112561;28;20247;-63
2021/11/01 22:17:00;;;;;;;7.43;3.67;;;;;;;10.80;65.53;99991.25;6120731;28;20227;-62
2021/11/01 22:20:23;;;;;;;9.37;3.53;;;;;;;10.64;65.81;99995.06;6109036;29;20336;-63
2021/11/01 22:23:48;;;;;;;11.70;3.60;;;;;;;10.83;65.52;99985.94;6108984;29;20244;-63
2021/11/01 22:34:34;;;;;;;5.37;2.93;;;;;;;10.90;65.02;99975.41;6110613;29;20589;-62
2021/11/01 22:38:26;;;;;;;7.60;2.87;;;;;;;10.85;65.64;99983.31;6109934;28;20235;-62
2021/11/01 22:42:00;;;;;;;7.10;3.53;;;;;;;10.48;66.40;99972.88;6111132;28;20244;-63
2021/11/01 22:45:23;;;;;;;5.50;2.97;;;;;;;10.33;66.95;99966.25;6107132;29;20501;-63
2021/11/01 22:48:50;;;;;;;8.63;3.97;;;;;;;10.13;67.84;99970.09;6112075;28;20232;-62
2021/11/01 22:55:57;;;;;;;9.03;3.93;;;;;;;10.03;68.42;99966.84;6107621;28;21143;-63
2021/11/01 22:59:19;;;;;;;5.53;3.13;;;;;;;10.14;67.81;99952.75;6112250;29;20291;-62
2021/11/01 23:02:41;;;;;;;6.67;4.07;;;;;;;9.76;69.34;99959.59;6107772;28;20232;-63
2021/11/01 23:06:29;;;;;;;5.20;3.37;;;;;;;9.65;69.85;99949.38;6113741;28;20235;-62
2021/11/01 23:31:46;;;;;;;5.57;2.83;;;;;;;10.25;67.59;99946.44;6108095;28;20773;-63
2021/11/01 23:35:08;;;;;;;5.87;3.40;;;;;;;10.11;67.83;99942.41;6107280;29;20216;-62
2021/11/01 23:38:30;;;;;;;6.90;2.80;;;;;;;10.10;68.06;99961.50;6106223;29;20540;-61
2021/11/01 23:41:52;;;;;;;7.43;3.27;;;;;;;10.03;68.53;99950.38;6108991;28;20255;-62
2021/11/01 23:45:14;;;;;;;5.23;3.73;;;;;;;10.22;68.36;99949.09;6109967;29;20208;-62
2021/11/01 23:48:36;;;;;;;7.47;3.80;;;;;;;10.14;68.14;99955.34;6108257;29;20826;-62
2021/11/01 23:52:02;;;;;;;5.13;3.20;;;;;;;10.30;67.71;99950.69;6105081;28;20232;-61
2021/11/01 23:55:24;;;;;;;6.97;3.73;;;;;;;10.22;67.75;99951.69;6110144;29;21394;-62
2021/11/01 23:58:46;;;;;;;7.33;3.57;;;;;;;10.20;67.64;99948.28;6108247;29;20228;-63
